Virginia, Washington
Current Conditions -  °F | °C
As of 10:15 PM on Friday 28 Nov 2014 (Local Time) from KPWT Reporting Station
Overcast Overcast  
Wind Chill: 32°   Ceiling: 500
Heat Index: 37°   Visibility: 10mi
Dew Point: 37°   Wind: 7mph
Humidity: 100%   Direction: 210°SSW
Pressure: 29.53"   Gusts: NA
Location:  47.7571°N, 122.623°W
Report Text: KPWT 290615Z AUTO 21006KT 10SM BKN005 OVC010 03/03 A2953 RMK AO1
Loading
Personal Weather Stations






























Interactive Weather Map New forecast layout! Learn more

10-Day Weather Forecast

Advertisements
Track Severe Weather on mobile